sensor_id;sensor_type;location;lat;lon;timestamp;pressure;altitude;pressure_sealevel;temperature
23992;BMP280;12205;50.600;4.608;2022-10-16T00:01:35;99355.78;;;14.59
23992;BMP280;12205;50.600;4.608;2022-10-16T00:04:03;99357.75;;;14.55
23992;BMP280;12205;50.600;4.608;2022-10-16T00:06:32;99362.72;;;14.56
23992;BMP280;12205;50.600;4.608;2022-10-16T00:08:59;99364.25;;;14.57
23992;BMP280;12205;50.600;4.608;2022-10-16T00:11:29;99355.09;;;14.51
23992;BMP280;12205;50.600;4.608;2022-10-16T00:14:03;99347.03;;;14.51
23992;BMP280;12205;50.600;4.608;2022-10-16T00:16:31;99339.06;;;14.44
23992;BMP280;12205;50.600;4.608;2022-10-16T00:18:58;99346.78;;;14.42
23992;BMP280;12205;50.600;4.608;2022-10-16T00:21:28;99332.63;;;14.38
23992;BMP280;12205;50.600;4.608;2022-10-16T00:24:01;99334.59;;;14.34
23992;BMP280;12205;50.600;4.608;2022-10-16T00:26:30;99330.63;;;14.42
23992;BMP280;12205;50.600;4.608;2022-10-16T00:28:58;99334.84;;;14.43
23992;BMP280;12205;50.600;4.608;2022-10-16T00:31:26;99342.19;;;14.39
23992;BMP280;12205;50.600;4.608;2022-10-16T00:33:53;99325.75;;;14.33
23992;BMP280;12205;50.600;4.608;2022-10-16T00:36:23;99328.41;;;14.37
23992;BMP280;12205;50.600;4.608;2022-10-16T00:38:52;99310.94;;;14.22
23992;BMP280;12205;50.600;4.608;2022-10-16T00:41:24;99312.44;;;14.23
23992;BMP280;12205;50.600;4.608;2022-10-16T00:43:54;99324.75;;;14.20
23992;BMP280;12205;50.600;4.608;2022-10-16T00:46:25;99320.94;;;14.17
23992;BMP280;12205;50.600;4.608;2022-10-16T00:49:01;99316.03;;;14.12
23992;BMP280;12205;50.600;4.608;2022-10-16T00:51:33;99301.06;;;14.11
23992;BMP280;12205;50.600;4.608;2022-10-16T00:54:04;99298.81;;;14.06
23992;BMP280;12205;50.600;4.608;2022-10-16T00:56:36;99301.84;;;14.12
23992;BMP280;12205;50.600;4.608;2022-10-16T00:59:12;99308.78;;;14.09
23992;BMP280;12205;50.600;4.608;2022-10-16T01:01:41;99300.72;;;14.09
23992;BMP280;12205;50.600;4.608;2022-10-16T01:04:08;99300.34;;;14.07
23992;BMP280;12205;50.600;4.608;2022-10-16T01:06:43;99296.50;;;14.05
23992;BMP280;12205;50.600;4.608;2022-10-16T01:09:21;99287.34;;;14.02
23992;BMP280;12205;50.600;4.608;2022-10-16T01:12:01;99269.00;;;13.97
23992;BMP280;12205;50.600;4.608;2022-10-16T01:14:42;99252.50;;;13.95
23992;BMP280;12205;50.600;4.608;2022-10-16T01:17:15;99258.91;;;14.05
23992;BMP280;12205;50.600;4.608;2022-10-16T01:20:02;99265.84;;;14.02
23992;BMP280;12205;50.600;4.608;2022-10-16T01:22:39;99262.38;;;14.05
23992;BMP280;12205;50.600;4.608;2022-10-16T01:25:18;99274.72;;;13.99
23992;BMP280;12205;50.600;4.608;2022-10-16T01:27:49;99270.47;;;14.01
23992;BMP280;12205;50.600;4.608;2022-10-16T01:30:22;99258.50;;;14.06
23992;BMP280;12205;50.600;4.608;2022-10-16T01:32:56;99215.44;;;13.82
23992;BMP280;12205;50.600;4.608;2022-10-16T01:35:28;99256.53;;;14.10
23992;BMP280;12205;50.600;4.608;2022-10-16T01:38:02;99252.69;;;14.11
23992;BMP280;12205;50.600;4.608;2022-10-16T01:40:34;99256.53;;;14.10
23992;BMP280;12205;50.600;4.608;2022-10-16T01:43:08;99239.69;;;14.06
23992;BMP280;12205;50.600;4.608;2022-10-16T01:45:40;99250.41;;;14.10
23992;BMP280;12205;50.600;4.608;2022-10-16T01:48:14;99250.38;;;14.13
23992;BMP280;12205;50.600;4.608;2022-10-16T01:50:50;99241.84;;;14.18
23992;BMP280;12205;50.600;4.608;2022-10-16T01:53:19;99254.13;;;14.19
23992;BMP280;12205;50.600;4.608;2022-10-16T01:55:49;99254.16;;;14.16
23992;BMP280;12205;50.600;4.608;2022-10-16T01:58:18;99254.13;;;14.19
23992;BMP280;12205;50.600;4.608;2022-10-16T02:00:47;99257.19;;;14.22
23992;BMP280;12205;50.600;4.608;2022-10-16T02:03:18;99245.31;;;14.19
23992;BMP280;12205;50.600;4.608;2022-10-16T02:05:50;99258.66;;;14.26
23992;BMP280;12205;50.600;4.608;2022-10-16T02:08:18;99265.47;;;14.31
23992;BMP280;12205;50.600;4.608;2022-10-16T02:10:46;99265.47;;;14.31
23992;BMP280;12205;50.600;4.608;2022-10-16T02:13:18;99275.91;;;14.29
23992;BMP280;12205;50.600;4.608;2022-10-16T02:15:48;99260.94;;;14.24
23992;BMP280;12205;50.600;4.608;2022-10-16T02:18:15;99267.84;;;14.29
23992;BMP280;12205;50.600;4.608;2022-10-16T02:20:51;99245.66;;;14.21
23992;BMP280;12205;50.600;4.608;2022-10-16T02:23:29;99250.19;;;14.28
23992;BMP280;12205;50.600;4.608;2022-10-16T02:26:07;99259.88;;;14.22
23992;BMP280;12205;50.600;4.608;2022-10-16T02:28:42;99246.00;;;14.23
23992;BMP280;12205;50.600;4.608;2022-10-16T02:31:17;99243.66;;;14.25
23992;BMP280;12205;50.600;4.608;2022-10-16T02:33:46;99245.59;;;14.25
23992;BMP280;12205;50.600;4.608;2022-10-16T02:36:13;99244.19;;;14.16
23992;BMP280;12205;50.600;4.608;2022-10-16T02:38:41;99244.13;;;14.20
23992;BMP280;12205;50.600;4.608;2022-10-16T02:41:09;99242.63;;;14.19
23992;BMP280;12205;50.600;4.608;2022-10-16T02:43:37;99249.56;;;14.16
23992;BMP280;12205;50.600;4.608;2022-10-16T02:46:04;99252.59;;;14.18
23992;BMP280;12205;50.600;4.608;2022-10-16T02:48:31;99250.28;;;14.20
23992;BMP280;12205;50.600;4.608;2022-10-16T02:50:58;99255.66;;;14.20
23992;BMP280;12205;50.600;4.608;2022-10-16T02:53:25;99240.38;;;14.14
23992;BMP280;12205;50.600;4.608;2022-10-16T02:55:52;99227.34;;;14.12
23992;BMP280;12205;50.600;4.608;2022-10-16T02:58:19;99226.63;;;14.08
23992;BMP280;12205;50.600;4.608;2022-10-16T03:00:48;99225.09;;;14.07
23992;BMP280;12205;50.600;4.608;2022-10-16T03:03:15;99233.53;;;14.09
23992;BMP280;12205;50.600;4.608;2022-10-16T03:05:43;99226.78;;;13.97
23992;BMP280;12205;50.600;4.608;2022-10-16T03:08:11;99222.97;;;13.95
23992;BMP280;12205;50.600;4.608;2022-10-16T03:10:38;99223.75;;;13.92
23992;BMP280;12205;50.600;4.608;2022-10-16T03:13:05;99216.88;;;13.91
23992;BMP280;12205;50.600;4.608;2022-10-16T03:15:32;99214.53;;;13.93
23992;BMP280;12205;50.600;4.608;2022-10-16T03:18:01;99206.94;;;13.88
23992;BMP280;12205;50.600;4.608;2022-10-16T03:20:28;99200.75;;;13.91
23992;BMP280;12205;50.600;4.608;2022-10-16T03:22:55;99196.88;;;13.92
23992;BMP280;12205;50.600;4.608;2022-10-16T03:25:22;99193.84;;;13.90
23992;BMP280;12205;50.600;4.608;2022-10-16T03:27:49;99204.59;;;13.90
23992;BMP280;12205;50.600;4.608;2022-10-16T03:30:16;99200.81;;;13.87
23992;BMP280;12205;50.600;4.608;2022-10-16T03:32:44;99202.38;;;13.85
23992;BMP280;12205;50.600;4.608;2022-10-16T03:35:13;99197.81;;;13.81
23992;BMP280;12205;50.600;4.608;2022-10-16T03:37:40;99195.56;;;13.76
23992;BMP280;12205;50.600;4.608;2022-10-16T03:40:08;99167.94;;;13.76
23992;BMP280;12205;50.600;4.608;2022-10-16T03:42:35;99172.47;;;13.82
23992;BMP280;12205;50.600;4.608;2022-10-16T03:45:03;99182.50;;;13.78
23992;BMP280;12205;50.600;4.608;2022-10-16T03:47:30;99181.69;;;13.81
23992;BMP280;12205;50.600;4.608;2022-10-16T03:49:58;99190.19;;;13.76
23992;BMP280;12205;50.600;4.608;2022-10-16T03:52:27;99182.84;;;13.80
23992;BMP280;12205;50.600;4.608;2022-10-16T03:54:54;99187.06;;;13.81
23992;BMP280;12205;50.600;4.608;2022-10-16T03:57:21;99190.09;;;13.83
23992;BMP280;12205;50.600;4.608;2022-10-16T03:59:48;99181.31;;;13.79
23992;BMP280;12205;50.600;4.608;2022-10-16T04:02:15;99179.00;;;13.81
23992;BMP280;12205;50.600;4.608;2022-10-16T04:04:42;99182.75;;;13.88
23992;BMP280;12205;50.600;4.608;2022-10-16T04:07:09;99195.03;;;13.89
23992;BMP280;12205;50.600;4.608;2022-10-16T04:09:38;99188.97;;;13.85
23992;BMP280;12205;50.600;4.608;2022-10-16T04:12:05;99189.28;;;13.87
23992;BMP280;12205;50.600;4.608;2022-10-16T04:14:32;99193.09;;;13.89
23992;BMP280;12205;50.600;4.608;2022-10-16T04:16:59;99197.00;;;13.85
23992;BMP280;12205;50.600;4.608;2022-10-16T04:19:26;99194.25;;;13.88
23992;BMP280;12205;50.600;4.608;2022-10-16T04:21:54;99178.63;;;13.83
23992;BMP280;12205;50.600;4.608;2022-10-16T04:24:21;99201.47;;;13.95
23992;BMP280;12205;50.600;4.608;2022-10-16T04:26:49;99199.22;;;13.90
23992;BMP280;12205;50.600;4.608;2022-10-16T04:29:19;99198.88;;;13.88
23992;BMP280;12205;50.600;4.608;2022-10-16T04:31:47;99181.53;;;13.92
23992;BMP280;12205;50.600;4.608;2022-10-16T04:34:14;99192.25;;;13.96
23992;BMP280;12205;50.600;4.608;2022-10-16T04:36:41;99201.47;;;13.95
23992;BMP280;12205;50.600;4.608;2022-10-16T04:39:08;99197.63;;;13.96
23992;BMP280;12205;50.600;4.608;2022-10-16T04:41:35;99209.81;;;14.00
23992;BMP280;12205;50.600;4.608;2022-10-16T04:44:03;99207.16;;;14.00
23992;BMP280;12205;50.600;4.608;2022-10-16T04:46:30;99206.09;;;13.94
23992;BMP280;12205;50.600;4.608;2022-10-16T04:48:58;99222.06;;;14.05
23992;BMP280;12205;50.600;4.608;2022-10-16T04:51:25;99236.69;;;14.00
23992;BMP280;12205;50.600;4.608;2022-10-16T04:53:53;99230.19;;;13.98
23992;BMP280;12205;50.600;4.608;2022-10-16T04:56:21;99238.25;;;13.98
23992;BMP280;12205;50.600;4.608;2022-10-16T04:58:48;99259.03;;;13.97
23992;BMP280;12205;50.600;4.608;2022-10-16T05:01:17;99261.28;;;13.99
23992;BMP280;12205;50.600;4.608;2022-10-16T05:03:44;99258.97;;;14.01
23992;BMP280;12205;50.600;4.608;2022-10-16T05:06:11;99264.75;;;13.99
23992;BMP280;12205;50.600;4.608;2022-10-16T05:08:38;99258.28;;;13.93
23992;BMP280;12205;50.600;4.608;2022-10-16T05:11:05;99257.88;;;13.95
23992;BMP280;12205;50.600;4.608;2022-10-16T05:13:32;99266.03;;;13.88
23992;BMP280;12205;50.600;4.608;2022-10-16T05:15:59;99256.03;;;13.88
23992;BMP280;12205;50.600;4.608;2022-10-16T05:18:28;99254.50;;;13.91
23992;BMP280;12205;50.600;4.608;2022-10-16T05:20:55;99263.66;;;13.93
23992;BMP280;12205;50.600;4.608;2022-10-16T05:23:22;99260.56;;;13.95
23992;BMP280;12205;50.600;4.608;2022-10-16T05:25:53;99266.66;;;13.99
23992;BMP280;12205;50.600;4.608;2022-10-16T05:28:21;99282.78;;;13.99
23992;BMP280;12205;50.600;4.608;2022-10-16T05:30:48;99281.59;;;14.04
23992;BMP280;12205;50.600;4.608;2022-10-16T05:33:15;99274.72;;;13.99
23992;BMP280;12205;50.600;4.608;2022-10-16T05:35:44;99278.19;;;13.99
23992;BMP280;12205;50.600;4.608;2022-10-16T05:38:11;99282.78;;;13.99
23992;BMP280;12205;50.600;4.608;2022-10-16T05:40:38;99281.97;;;14.02
23992;BMP280;12205;50.600;4.608;2022-10-16T05:43:05;99287.00;;;14.00
23992;BMP280;12205;50.600;4.608;2022-10-16T05:45:32;99296.66;;;13.94
23992;BMP280;12205;50.600;4.608;2022-10-16T05:48:00;99299.72;;;13.96
23992;BMP280;12205;50.600;4.608;2022-10-16T05:50:28;99317.38;;;13.97
23992;BMP280;12205;50.600;4.608;2022-10-16T05:52:57;99320.44;;;13.95
23992;BMP280;12205;50.600;4.608;2022-10-16T05:55:24;99328.13;;;13.97
23992;BMP280;12205;50.600;4.608;2022-10-16T05:57:53;99336.50;;;13.99
23992;BMP280;12205;50.600;4.608;2022-10-16T06:00:20;99341.94;;;13.95
23992;BMP280;12205;50.600;4.608;2022-10-16T06:02:47;99345.06;;;13.90
23992;BMP280;12205;50.600;4.608;2022-10-16T06:05:15;99338.94;;;13.86
23992;BMP280;12205;50.600;4.608;2022-10-16T06:07:42;99337.41;;;13.85
23992;BMP280;12205;50.600;4.608;2022-10-16T06:10:10;99323.69;;;13.76
23992;BMP280;12205;50.600;4.608;2022-10-16T06:12:37;99302.34;;;13.65
23992;BMP280;12205;50.600;4.608;2022-10-16T06:15:05;99306.84;;;13.75
23992;BMP280;12205;50.600;4.608;2022-10-16T06:17:32;99305.31;;;13.74
23992;BMP280;12205;50.600;4.608;2022-10-16T06:19:59;99311.47;;;13.75
23992;BMP280;12205;50.600;4.608;2022-10-16T06:22:26;99311.47;;;13.75
23992;BMP280;12205;50.600;4.608;2022-10-16T06:24:53;99302.25;;;13.72
23992;BMP280;12205;50.600;4.608;2022-10-16T06:27:22;99306.41;;;13.80
23992;BMP280;12205;50.600;4.608;2022-10-16T06:29:49;99318.69;;;13.81
23992;BMP280;12205;50.600;4.608;2022-10-16T06:32:16;99324.41;;;13.83
23992;BMP280;12205;50.600;4.608;2022-10-16T06:34:43;99331.41;;;13.77
23992;BMP280;12205;50.600;4.608;2022-10-16T06:37:10;99330.97;;;13.79
23992;BMP280;12205;50.600;4.608;2022-10-16T06:39:37;99333.66;;;13.79
23992;BMP280;12205;50.600;4.608;2022-10-16T06:42:04;99332.13;;;13.81
23992;BMP280;12205;50.600;4.608;2022-10-16T06:44:36;99334.41;;;13.79
23992;BMP280;12205;50.600;4.608;2022-10-16T06:47:03;99340.53;;;13.83
23992;BMP280;12205;50.600;4.608;2022-10-16T06:49:31;99342.78;;;13.85
23992;BMP280;12205;50.600;4.608;2022-10-16T06:51:58;99339.38;;;13.85
23992;BMP280;12205;50.600;4.608;2022-10-16T06:54:25;99349.69;;;13.86
23992;BMP280;12205;50.600;4.608;2022-10-16T06:56:52;99355.50;;;13.85
23992;BMP280;12205;50.600;4.608;2022-10-16T06:59:20;99348.53;;;13.87
23992;BMP280;12205;50.600;4.608;2022-10-16T07:01:48;99353.13;;;13.87
23992;BMP280;12205;50.600;4.608;2022-10-16T07:04:15;99359.63;;;13.93
23992;BMP280;12205;50.600;4.608;2022-10-16T07:06:42;99366.13;;;13.92
23992;BMP280;12205;50.600;4.608;2022-10-16T07:09:10;99369.56;;;13.92
23992;BMP280;12205;50.600;4.608;2022-10-16T07:11:39;99370.28;;;14.00
23992;BMP280;12205;50.600;4.608;2022-10-16T07:14:15;99374.94;;;13.96
23992;BMP280;12205;50.600;4.608;2022-10-16T07:16:43;99381.75;;;14.04
23992;BMP280;12205;50.600;4.608;2022-10-16T07:19:11;99382.50;;;14.08
23992;BMP280;12205;50.600;4.608;2022-10-16T07:21:41;99384.03;;;14.09
23992;BMP280;12205;50.600;4.608;2022-10-16T07:24:12;99376.72;;;14.06
23992;BMP280;12205;50.600;4.608;2022-10-16T07:26:44;99376.28;;;14.11
23992;BMP280;12205;50.600;4.608;2022-10-16T07:29:15;99380.84;;;14.18
23992;BMP280;12205;50.600;4.608;2022-10-16T07:31:44;99400.72;;;14.28
23992;BMP280;12205;50.600;4.608;2022-10-16T07:34:15;99402.88;;;14.36
23992;BMP280;12205;50.600;4.608;2022-10-16T07:36:42;99414.34;;;14.44
23992;BMP280;12205;50.600;4.608;2022-10-16T07:39:09;99421.97;;;14.49
23992;BMP280;12205;50.600;4.608;2022-10-16T07:41:36;99425.78;;;14.52
23992;BMP280;12205;50.600;4.608;2022-10-16T07:44:04;99426.50;;;14.56
23992;BMP280;12205;50.600;4.608;2022-10-16T07:46:32;99431.00;;;14.63
23992;BMP280;12205;50.600;4.608;2022-10-16T07:49:02;99445.56;;;14.69
23992;BMP280;12205;50.600;4.608;2022-10-16T07:51:31;99452.47;;;14.70
23992;BMP280;12205;50.600;4.608;2022-10-16T07:53:58;99456.22;;;14.76
23992;BMP280;12205;50.600;4.608;2022-10-16T07:56:25;99453.09;;;14.81
23992;BMP280;12205;50.600;4.608;2022-10-16T07:58:53;99466.81;;;14.90
23992;BMP280;12205;50.600;4.608;2022-10-16T08:01:20;99469.06;;;14.95
23992;BMP280;12205;50.600;4.608;2022-10-16T08:03:49;99470.13;;;15.02
23992;BMP280;12205;50.600;4.608;2022-10-16T08:06:18;99470.56;;;14.96
23992;BMP280;12205;50.600;4.608;2022-10-16T08:08:46;99497.31;;;15.11
23992;BMP280;12205;50.600;4.608;2022-10-16T08:11:13;99518.03;;;15.14
23992;BMP280;12205;50.600;4.608;2022-10-16T08:13:41;99531.00;;;15.23
23992;BMP280;12205;50.600;4.608;2022-10-16T08:16:08;99546.31;;;15.26
23992;BMP280;12205;50.600;4.608;2022-10-16T08:18:36;99570.84;;;15.31
23992;BMP280;12205;50.600;4.608;2022-10-16T08:21:05;99579.75;;;15.28
23992;BMP280;12205;50.600;4.608;2022-10-16T08:23:33;99618.47;;;15.42
23992;BMP280;12205;50.600;4.608;2022-10-16T08:26:06;99626.88;;;15.44
23992;BMP280;12205;50.600;4.608;2022-10-16T08:28:34;99649.50;;;15.50
23992;BMP280;12205;50.600;4.608;2022-10-16T08:31:10;99660.59;;;15.59
23992;BMP280;12205;50.600;4.608;2022-10-16T08:33:38;99653.44;;;15.72
23992;BMP280;12205;50.600;4.608;2022-10-16T08:36:06;99695.78;;;15.76
23992;BMP280;12205;50.600;4.608;2022-10-16T08:38:34;99710.31;;;15.82
23992;BMP280;12205;50.600;4.608;2022-10-16T08:41:50;99716.44;;;15.86
23992;BMP280;12205;50.600;4.608;2022-10-16T08:44:49;99720.53;;;15.94
23992;BMP280;12205;50.600;4.608;2022-10-16T08:47:24;99757.47;;;15.97
23992;BMP280;12205;50.600;4.608;2022-10-16T08:49:58;99771.66;;;16.01
23992;BMP280;12205;50.600;4.608;2022-10-16T08:52:31;99777.69;;;16.12
23992;BMP280;12205;50.600;4.608;2022-10-16T08:54:59;99796.97;;;16.11
23992;BMP280;12205;50.600;4.608;2022-10-16T08:57:29;99786.06;;;16.18
23992;BMP280;12205;50.600;4.608;2022-10-16T09:00:04;99781.41;;;16.22
23992;BMP280;12205;50.600;4.608;2022-10-16T09:02:37;99796.38;;;16.27
23992;BMP280;12205;50.600;4.608;2022-10-16T09:05:24;99855.31;;;16.28
23992;BMP280;12205;50.600;4.608;2022-10-16T09:08:09;99869.94;;;16.31
23992;BMP280;12205;50.600;4.608;2022-10-16T09:10:55;99875.66;;;16.33
23992;BMP280;12205;50.600;4.608;2022-10-16T09:13:30;99869.06;;;16.38
23992;BMP280;12205;50.600;4.608;2022-10-16T09:16:15;99871.97;;;16.50
23992;BMP280;12205;50.600;4.608;2022-10-16T09:18:52;99882.69;;;16.58
23992;BMP280;12205;50.600;4.608;2022-10-16T09:21:25;99884.88;;;16.66
23992;BMP280;12205;50.600;4.608;2022-10-16T09:23:57;99906.06;;;16.68
23992;BMP280;12205;50.600;4.608;2022-10-16T09:26:26;99946.19;;;16.66
23992;BMP280;12205;50.600;4.608;2022-10-16T09:28:54;99952.66;;;16.72
23992;BMP280;12205;50.600;4.608;2022-10-16T09:31:23;99954.03;;;16.84
23992;BMP280;12205;50.600;4.608;2022-10-16T09:33:54;99934.41;;;16.83
23992;BMP280;12205;50.600;4.608;2022-10-16T09:36:25;99963.16;;;16.94
23992;BMP280;12205;50.600;4.608;2022-10-16T09:39:04;99976.63;;;16.97
23992;BMP280;12205;50.600;4.608;2022-10-16T09:41:35;99983.16;;;17.00
23992;BMP280;12205;50.600;4.608;2022-10-16T09:44:17;100008.97;;;17.01
23992;BMP280;12205;50.600;4.608;2022-10-16T09:46:45;99997.69;;;17.09
23992;BMP280;12205;50.600;4.608;2022-10-16T09:49:21;100013.81;;;17.13
23992;BMP280;12205;50.600;4.608;2022-10-16T09:51:50;100009.50;;;17.19
23992;BMP280;12205;50.600;4.608;2022-10-16T09:54:19;100021.47;;;17.18
23992;BMP280;12205;50.600;4.608;2022-10-16T09:56:48;100007.59;;;17.16
23992;BMP280;12205;50.600;4.608;2022-10-16T09:59:20;100044.16;;;17.24
23992;BMP280;12205;50.600;4.608;2022-10-16T10:01:51;100029.03;;;17.31
23992;BMP280;12205;50.600;4.608;2022-10-16T10:04:21;100050.63;;;17.31
23992;BMP280;12205;50.600;4.608;2022-10-16T10:06:51;100043.06;;;17.18
23992;BMP280;12205;50.600;4.608;2022-10-16T10:09:22;100039.38;;;17.36
23992;BMP280;12205;50.600;4.608;2022-10-16T10:11:53;100050.84;;;17.43
23992;BMP280;12205;50.600;4.608;2022-10-16T10:14:31;100064.19;;;17.54
23992;BMP280;12205;50.600;4.608;2022-10-16T10:17:14;100068.28;;;17.62
23992;BMP280;12205;50.600;4.608;2022-10-16T10:19:50;100073.28;;;17.64
23992;BMP280;12205;50.600;4.608;2022-10-16T10:22:29;100067.84;;;17.67
23992;BMP280;12205;50.600;4.608;2022-10-16T10:25:14;100063.50;;;17.74
23992;BMP280;12205;50.600;4.608;2022-10-16T10:27:58;100088.53;;;17.78
23992;BMP280;12205;50.600;4.608;2022-10-16T10:30:37;100091.16;;;17.85
23992;BMP280;12205;50.600;4.608;2022-10-16T10:33:19;100104.53;;;17.92
23992;BMP280;12205;50.600;4.608;2022-10-16T10:36:01;100109.22;;;17.92
23992;BMP280;12205;50.600;4.608;2022-10-16T10:38:42;100119.03;;;18.05
23992;BMP280;12205;50.600;4.608;2022-10-16T10:41:56;100124.19;;;18.20
23992;BMP280;12205;50.600;4.608;2022-10-16T10:44:49;100134.88;;;18.27
23992;BMP280;12205;50.600;4.608;2022-10-16T10:47:32;100136.09;;;18.46
23992;BMP280;12205;50.600;4.608;2022-10-16T10:50:19;100168.47;;;18.53
23992;BMP280;12205;50.600;4.608;2022-10-16T10:52:59;100161.31;;;18.63
23992;BMP280;12205;50.600;4.608;2022-10-16T10:55:39;100162.09;;;18.63
23992;BMP280;12205;50.600;4.608;2022-10-16T10:58:44;100164.78;;;18.83
23992;BMP280;12205;50.600;4.608;2022-10-16T11:01:16;100149.25;;;18.88
23992;BMP280;12205;50.600;4.608;2022-10-16T11:04:12;100156.63;;;18.87
23992;BMP280;12205;50.600;4.608;2022-10-16T11:06:47;100165.97;;;19.02
23992;BMP280;12205;50.600;4.608;2022-10-16T11:09:20;100183.03;;;19.03
23992;BMP280;12205;50.600;4.608;2022-10-16T11:11:55;100189.81;;;19.11
23992;BMP280;12205;50.600;4.608;2022-10-16T11:14:29;100179.69;;;19.15
23992;BMP280;12205;50.600;4.608;2022-10-16T11:17:04;100176.31;;;19.27
23992;BMP280;12205;50.600;4.608;2022-10-16T11:19:39;100185.34;;;19.41
23992;BMP280;12205;50.600;4.608;2022-10-16T11:22:17;100177.22;;;19.57
23992;BMP280;12205;50.600;4.608;2022-10-16T11:24:55;100180.66;;;19.78
23992;BMP280;12205;50.600;4.608;2022-10-16T11:27:38;100181.66;;;20.00
23992;BMP280;12205;50.600;4.608;2022-10-16T11:30:16;100182.34;;;20.04
23992;BMP280;12205;50.600;4.608;2022-10-16T11:32:56;100191.25;;;20.21
23992;BMP280;12205;50.600;4.608;2022-10-16T11:35:39;100202.19;;;20.18
23992;BMP280;12205;50.600;4.608;2022-10-16T11:38:14;100198.78;;;20.30
23992;BMP280;12205;50.600;4.608;2022-10-16T11:40:45;100214.03;;;20.40
23992;BMP280;12205;50.600;4.608;2022-10-16T11:43:22;100209.41;;;20.70
23992;BMP280;12205;50.600;4.608;2022-10-16T11:45:54;100213.28;;;20.98
23992;BMP280;12205;50.600;4.608;2022-10-16T11:48:31;100206.47;;;21.19
23992;BMP280;12205;50.600;4.608;2022-10-16T11:51:11;100213.13;;;21.31
23992;BMP280;12205;50.600;4.608;2022-10-16T11:53:47;100205.28;;;21.46
23992;BMP280;12205;50.600;4.608;2022-10-16T11:56:19;100219.13;;;21.64
23992;BMP280;12205;50.600;4.608;2022-10-16T11:58:56;100227.03;;;21.84
23992;BMP280;12205;50.600;4.608;2022-10-16T12:01:32;100212.53;;;22.00
23992;BMP280;12205;50.600;4.608;2022-10-16T12:04:14;100211.41;;;22.23
23992;BMP280;12205;50.600;4.608;2022-10-16T12:06:51;100197.47;;;22.43
23992;BMP280;12205;50.600;4.608;2022-10-16T12:09:26;100204.53;;;22.54
23992;BMP280;12205;50.600;4.608;2022-10-16T12:11:54;100211.91;;;22.75
23992;BMP280;12205;50.600;4.608;2022-10-16T12:14:36;100204.13;;;22.86
23992;BMP280;12205;50.600;4.608;2022-10-16T12:17:25;100209.00;;;22.69
23992;BMP280;12205;50.600;4.608;2022-10-16T12:20:00;100208.97;;;22.60
23992;BMP280;12205;50.600;4.608;2022-10-16T12:22:31;100201.44;;;22.52
23992;BMP280;12205;50.600;4.608;2022-10-16T12:24:59;100187.09;;;22.51
23992;BMP280;12205;50.600;4.608;2022-10-16T12:27:29;100212.88;;;22.59
23992;BMP280;12205;50.600;4.608;2022-10-16T12:29:59;100222.44;;;22.64
23992;BMP280;12205;50.600;4.608;2022-10-16T12:32:31;100229.34;;;22.56
23992;BMP280;12205;50.600;4.608;2022-10-16T12:35:00;100220.94;;;22.28
23992;BMP280;12205;50.600;4.608;2022-10-16T12:37:33;100211.09;;;22.43
23992;BMP280;12205;50.600;4.608;2022-10-16T12:40:13;100223.63;;;22.63
23992;BMP280;12205;50.600;4.608;2022-10-16T12:42:41;100212.75;;;22.85
23992;BMP280;12205;50.600;4.608;2022-10-16T12:45:28;100218.44;;;23.00
23992;BMP280;12205;50.600;4.608;2022-10-16T12:47:58;100200.81;;;22.92
23992;BMP280;12205;50.600;4.608;2022-10-16T12:50:33;100220.34;;;22.90
23992;BMP280;12205;50.600;4.608;2022-10-16T12:53:16;100216.91;;;22.77
23992;BMP280;12205;50.600;4.608;2022-10-16T12:55:57;100224.53;;;22.60
23992;BMP280;12205;50.600;4.608;2022-10-16T12:58:49;100217.09;;;22.38
23992;BMP280;12205;50.600;4.608;2022-10-16T13:01:34;100222.84;;;22.18
23992;BMP280;12205;50.600;4.608;2022-10-16T13:04:34;100228.53;;;22.11
23992;BMP280;12205;50.600;4.608;2022-10-16T13:07:25;100224.53;;;22.03
23992;BMP280;12205;50.600;4.608;2022-10-16T13:10:09;100226.06;;;21.91
23992;BMP280;12205;50.600;4.608;2022-10-16T13:13:13;100239.97;;;21.80
23992;BMP280;12205;50.600;4.608;2022-10-16T13:16:04;100234.47;;;21.71
23992;BMP280;12205;50.600;4.608;2022-10-16T13:18:49;100233.34;;;21.81
23992;BMP280;12205;50.600;4.608;2022-10-16T13:21:33;100219.09;;;21.90
23992;BMP280;12205;50.600;4.608;2022-10-16T13:24:19;100228.00;;;22.03
23992;BMP280;12205;50.600;4.608;2022-10-16T13:26:59;100229.91;;;22.16
23992;BMP280;12205;50.600;4.608;2022-10-16T13:29:31;100223.53;;;22.10
23992;BMP280;12205;50.600;4.608;2022-10-16T13:32:01;100216.94;;;22.20
23992;BMP280;12205;50.600;4.608;2022-10-16T13:34:28;100213.50;;;22.41
23992;BMP280;12205;50.600;4.608;2022-10-16T13:36:55;100209.59;;;22.64
23992;BMP280;12205;50.600;4.608;2022-10-16T13:39:25;100211.06;;;22.78
23992;BMP280;12205;50.600;4.608;2022-10-16T13:42:06;100217.69;;;22.77
23992;BMP280;12205;50.600;4.608;2022-10-16T13:44:41;100220.63;;;22.61
23992;BMP280;12205;50.600;4.608;2022-10-16T13:47:17;100216.72;;;22.49
23992;BMP280;12205;50.600;4.608;2022-10-16T13:49:46;100215.91;;;22.39
23992;BMP280;12205;50.600;4.608;2022-10-16T13:52:20;100218.44;;;22.34
23992;BMP280;12205;50.600;4.608;2022-10-16T13:54:47;100218.22;;;22.28
23992;BMP280;12205;50.600;4.608;2022-10-16T13:57:17;100206.50;;;22.18
23992;BMP280;12205;50.600;4.608;2022-10-16T13:59:44;100196.94;;;22.14
23992;BMP280;12205;50.600;4.608;2022-10-16T14:02:20;100193.78;;;22.02
23992;BMP280;12205;50.600;4.608;2022-10-16T14:04:48;100200.34;;;21.92
23992;BMP280;12205;50.600;4.608;2022-10-16T14:07:23;100209.09;;;21.87
23992;BMP280;12205;50.600;4.608;2022-10-16T14:09:52;100211.47;;;21.85
23992;BMP280;12205;50.600;4.608;2022-10-16T14:12:22;100201.44;;;21.82
23992;BMP280;12205;50.600;4.608;2022-10-16T14:14:53;100199.16;;;21.80
23992;BMP280;12205;50.600;4.608;2022-10-16T14:17:25;100199.31;;;21.77
23992;BMP280;12205;50.600;4.608;2022-10-16T14:19:56;100198.34;;;21.83
23992;BMP280;12205;50.600;4.608;2022-10-16T14:22:32;100188.41;;;21.77
23992;BMP280;12205;50.600;4.608;2022-10-16T14:25:00;100188.16;;;21.84
23992;BMP280;12205;50.600;4.608;2022-10-16T14:27:33;100191.00;;;21.93
23992;BMP280;12205;50.600;4.608;2022-10-16T14:30:14;100179.97;;;21.97
23992;BMP280;12205;50.600;4.608;2022-10-16T14:32:53;100190.63;;;22.04